sensor_id;sensor_type;location;lat;lon;timestamp;temperature;humidity
60469;DHT22;46316;47.582;10.238;2022-08-05T00:01:38;20.10;71.60
60469;DHT22;46316;47.582;10.238;2022-08-05T00:04:04;20.20;71.20
60469;DHT22;46316;47.582;10.238;2022-08-05T00:06:29;20.10;71.00
60469;DHT22;46316;47.582;10.238;2022-08-05T00:08:55;20.10;71.00
60469;DHT22;46316;47.582;10.238;2022-08-05T00:11:20;20.10;71.20
60469;DHT22;46316;47.582;10.238;2022-08-05T00:13:46;20.00;71.00
60469;DHT22;46316;47.582;10.238;2022-08-05T00:16:13;20.00;71.40
60469;DHT22;46316;47.582;10.238;2022-08-05T00:18:45;20.00;71.50
60469;DHT22;46316;47.582;10.238;2022-08-05T00:21:12;20.00;71.90
60469;DHT22;46316;47.582;10.238;2022-08-05T00:23:38;19.90;71.50
60469;DHT22;46316;47.582;10.238;2022-08-05T00:26:04;19.90;72.00
60469;DHT22;46316;47.582;10.238;2022-08-05T00:28:30;19.90;72.10
60469;DHT22;46316;47.582;10.238;2022-08-05T00:30:56;19.90;72.60
60469;DHT22;46316;47.582;10.238;2022-08-05T00:33:21;19.90;72.60
60469;DHT22;46316;47.582;10.238;2022-08-05T00:35:47;19.80;72.60
60469;DHT22;46316;47.582;10.238;2022-08-05T00:38:13;19.80;72.60
60469;DHT22;46316;47.582;10.238;2022-08-05T00:40:47;19.80;71.80
60469;DHT22;46316;47.582;10.238;2022-08-05T00:43:12;19.80;71.80
60469;DHT22;46316;47.582;10.238;2022-08-05T00:45:38;19.70;72.20
60469;DHT22;46316;47.582;10.238;2022-08-05T00:48:04;19.70;72.00
60469;DHT22;46316;47.582;10.238;2022-08-05T00:50:29;19.60;72.50
60469;DHT22;46316;47.582;10.238;2022-08-05T00:52:55;19.60;72.40
60469;DHT22;46316;47.582;10.238;2022-08-05T00:55:21;19.60;72.20
60469;DHT22;46316;47.582;10.238;2022-08-05T00:57:46;19.60;71.70
60469;DHT22;46316;47.582;10.238;2022-08-05T01:00:12;19.60;71.70
60469;DHT22;46316;47.582;10.238;2022-08-05T01:02:38;19.60;72.30
60469;DHT22;46316;47.582;10.238;2022-08-05T01:05:04;19.60;72.10
60469;DHT22;46316;47.582;10.238;2022-08-05T01:07:29;19.60;72.50
60469;DHT22;46316;47.582;10.238;2022-08-05T01:09:55;19.50;73.10
60469;DHT22;46316;47.582;10.238;2022-08-05T01:12:21;19.50;73.10
60469;DHT22;46316;47.582;10.238;2022-08-05T01:15:03;19.50;73.50
60469;DHT22;46316;47.582;10.238;2022-08-05T01:17:45;19.50;73.40
60469;DHT22;46316;47.582;10.238;2022-08-05T01:20:29;19.60;72.50
60469;DHT22;46316;47.582;10.238;2022-08-05T01:28:59;19.50;72.00
60469;DHT22;46316;47.582;10.238;2022-08-05T01:31:32;19.50;72.40
60469;DHT22;46316;47.582;10.238;2022-08-05T01:34:14;19.50;71.90
60469;DHT22;46316;47.582;10.238;2022-08-05T01:39:38;19.60;72.00
60469;DHT22;46316;47.582;10.238;2022-08-05T01:42:05;19.60;73.00
60469;DHT22;46316;47.582;10.238;2022-08-05T01:44:33;19.60;72.70
60469;DHT22;46316;47.582;10.238;2022-08-05T01:47:00;19.60;73.30
60469;DHT22;46316;47.582;10.238;2022-08-05T01:49:27;19.60;72.40
60469;DHT22;46316;47.582;10.238;2022-08-05T01:51:58;19.60;72.80
60469;DHT22;46316;47.582;10.238;2022-08-05T01:54:30;19.60;73.30
60469;DHT22;46316;47.582;10.238;2022-08-05T01:56:57;19.60;73.50
60469;DHT22;46316;47.582;10.238;2022-08-05T01:59:25;19.70;73.80
60469;DHT22;46316;47.582;10.238;2022-08-05T02:01:53;19.60;73.90
60469;DHT22;46316;47.582;10.238;2022-08-05T02:04:22;19.70;74.10
60469;DHT22;46316;47.582;10.238;2022-08-05T02:06:51;19.70;74.00
60469;DHT22;46316;47.582;10.238;2022-08-05T02:09:16;19.80;73.40
60469;DHT22;46316;47.582;10.238;2022-08-05T02:14:48;19.80;73.10
60469;DHT22;46316;47.582;10.238;2022-08-05T02:17:19;19.90;73.70
60469;DHT22;46316;47.582;10.238;2022-08-05T02:19:50;19.90;72.90
60469;DHT22;46316;47.582;10.238;2022-08-05T02:22:22;19.90;72.30
60469;DHT22;46316;47.582;10.238;2022-08-05T02:24:52;19.90;71.30
60469;DHT22;46316;47.582;10.238;2022-08-05T02:27:20;19.90;70.50
60469;DHT22;46316;47.582;10.238;2022-08-05T02:29:48;20.00;71.20
60469;DHT22;46316;47.582;10.238;2022-08-05T02:32:17;20.00;71.50
60469;DHT22;46316;47.582;10.238;2022-08-05T02:34:45;20.10;71.50
60469;DHT22;46316;47.582;10.238;2022-08-05T02:37:11;20.10;71.70
60469;DHT22;46316;47.582;10.238;2022-08-05T02:39:38;20.10;72.30
60469;DHT22;46316;47.582;10.238;2022-08-05T02:42:06;20.10;72.00
60469;DHT22;46316;47.582;10.238;2022-08-05T02:44:33;20.20;72.40
60469;DHT22;46316;47.582;10.238;2022-08-05T02:47:02;20.20;70.50
60469;DHT22;46316;47.582;10.238;2022-08-05T02:49:35;20.20;69.60
60469;DHT22;46316;47.582;10.238;2022-08-05T02:52:06;20.20;69.60
60469;DHT22;46316;47.582;10.238;2022-08-05T02:54:32;20.30;69.90
60469;DHT22;46316;47.582;10.238;2022-08-05T02:56:59;20.30;70.60
60469;DHT22;46316;47.582;10.238;2022-08-05T02:59:25;20.30;71.00
60469;DHT22;46316;47.582;10.238;2022-08-05T03:01:53;20.30;70.40
60469;DHT22;46316;47.582;10.238;2022-08-05T03:04:24;20.20;69.10
60469;DHT22;46316;47.582;10.238;2022-08-05T03:06:50;20.30;70.80
60469;DHT22;46316;47.582;10.238;2022-08-05T03:09:16;20.30;70.60
60469;DHT22;46316;47.582;10.238;2022-08-05T03:11:42;20.30;71.50
60469;DHT22;46316;47.582;10.238;2022-08-05T03:14:11;20.30;72.20
60469;DHT22;46316;47.582;10.238;2022-08-05T03:16:36;20.30;72.10
60469;DHT22;46316;47.582;10.238;2022-08-05T03:19:03;20.30;71.10
60469;DHT22;46316;47.582;10.238;2022-08-05T03:21:29;20.40;70.80
60469;DHT22;46316;47.582;10.238;2022-08-05T03:23:55;20.40;70.80
60469;DHT22;46316;47.582;10.238;2022-08-05T03:26:21;20.50;70.80
60469;DHT22;46316;47.582;10.238;2022-08-05T03:28:47;20.50;71.60
60469;DHT22;46316;47.582;10.238;2022-08-05T03:31:12;20.50;71.50
60469;DHT22;46316;47.582;10.238;2022-08-05T03:33:38;20.50;71.10
60469;DHT22;46316;47.582;10.238;2022-08-05T03:36:05;20.50;71.20
60469;DHT22;46316;47.582;10.238;2022-08-05T03:38:31;20.60;70.80
60469;DHT22;46316;47.582;10.238;2022-08-05T03:40:56;20.50;71.30
60469;DHT22;46316;47.582;10.238;2022-08-05T03:43:22;20.60;71.50
60469;DHT22;46316;47.582;10.238;2022-08-05T03:45:51;20.60;70.50
60469;DHT22;46316;47.582;10.238;2022-08-05T03:48:18;20.60;71.50
60469;DHT22;46316;47.582;10.238;2022-08-05T03:51:18;20.60;71.00
60469;DHT22;46316;47.582;10.238;2022-08-05T03:53:54;20.70;70.70
60469;DHT22;46316;47.582;10.238;2022-08-05T03:59:34;20.60;71.20
60469;DHT22;46316;47.582;10.238;2022-08-05T04:02:02;20.60;71.70
60469;DHT22;46316;47.582;10.238;2022-08-05T04:04:29;20.60;70.80
60469;DHT22;46316;47.582;10.238;2022-08-05T04:06:57;20.60;69.70
60469;DHT22;46316;47.582;10.238;2022-08-05T04:09:23;20.70;69.60
60469;DHT22;46316;47.582;10.238;2022-08-05T04:11:49;20.70;69.50
60469;DHT22;46316;47.582;10.238;2022-08-05T04:14:15;20.70;69.10
60469;DHT22;46316;47.582;10.238;2022-08-05T04:16:42;20.70;69.50
60469;DHT22;46316;47.582;10.238;2022-08-05T04:19:10;20.80;70.30
60469;DHT22;46316;47.582;10.238;2022-08-05T04:21:37;20.90;68.30
60469;DHT22;46316;47.582;10.238;2022-08-05T04:24:02;20.90;67.70
60469;DHT22;46316;47.582;10.238;2022-08-05T04:26:29;20.90;68.20
60469;DHT22;46316;47.582;10.238;2022-08-05T04:28:55;21.00;68.60
60469;DHT22;46316;47.582;10.238;2022-08-05T04:31:20;21.10;68.30
60469;DHT22;46316;47.582;10.238;2022-08-05T04:33:46;21.20;67.80
60469;DHT22;46316;47.582;10.238;2022-08-05T04:36:12;21.30;66.70
60469;DHT22;46316;47.582;10.238;2022-08-05T04:38:40;21.90;64.00
60469;DHT22;46316;47.582;10.238;2022-08-05T04:41:06;22.50;61.80
60469;DHT22;46316;47.582;10.238;2022-08-05T04:43:32;23.00;59.90
60469;DHT22;46316;47.582;10.238;2022-08-05T04:45:58;23.20;58.90
60469;DHT22;46316;47.582;10.238;2022-08-05T04:48:24;23.10;59.40
60469;DHT22;46316;47.582;10.238;2022-08-05T04:50:49;23.40;58.90
60469;DHT22;46316;47.582;10.238;2022-08-05T04:53:16;24.30;56.70
60469;DHT22;46316;47.582;10.238;2022-08-05T04:55:43;25.20;55.20
60469;DHT22;46316;47.582;10.238;2022-08-05T04:58:12;26.10;54.10
60469;DHT22;46316;47.582;10.238;2022-08-05T05:00:38;27.20;51.00
60469;DHT22;46316;47.582;10.238;2022-08-05T05:03:05;27.10;49.20
60469;DHT22;46316;47.582;10.238;2022-08-05T05:05:31;26.50;50.50
60469;DHT22;46316;47.582;10.238;2022-08-05T05:08:05;25.90;53.10
60469;DHT22;46316;47.582;10.238;2022-08-05T05:10:39;25.00;55.30
60469;DHT22;46316;47.582;10.238;2022-08-05T05:13:07;24.40;57.90
60469;DHT22;46316;47.582;10.238;2022-08-05T05:15:33;23.80;60.00
60469;DHT22;46316;47.582;10.238;2022-08-05T05:17:58;23.40;61.10
60469;DHT22;46316;47.582;10.238;2022-08-05T05:20:24;23.10;63.00
60469;DHT22;46316;47.582;10.238;2022-08-05T05:22:49;22.80;64.10
60469;DHT22;46316;47.582;10.238;2022-08-05T05:25:15;22.50;64.60
60469;DHT22;46316;47.582;10.238;2022-08-05T05:27:40;22.40;65.50
60469;DHT22;46316;47.582;10.238;2022-08-05T05:30:06;22.20;65.80
60469;DHT22;46316;47.582;10.238;2022-08-05T05:32:32;22.20;66.20
60469;DHT22;46316;47.582;10.238;2022-08-05T05:34:57;22.10;66.80
60469;DHT22;46316;47.582;10.238;2022-08-05T05:37:23;22.10;67.20
60469;DHT22;46316;47.582;10.238;2022-08-05T05:39:48;22.10;67.70
60469;DHT22;46316;47.582;10.238;2022-08-05T05:42:14;22.10;68.40
60469;DHT22;46316;47.582;10.238;2022-08-05T05:44:39;22.20;68.40
60469;DHT22;46316;47.582;10.238;2022-08-05T05:47:05;22.10;67.80
60469;DHT22;46316;47.582;10.238;2022-08-05T05:49:31;22.20;67.80
60469;DHT22;46316;47.582;10.238;2022-08-05T05:51:57;22.30;69.20
60469;DHT22;46316;47.582;10.238;2022-08-05T05:54:23;22.40;68.50
60469;DHT22;46316;47.582;10.238;2022-08-05T05:56:49;22.40;68.60
60469;DHT22;46316;47.582;10.238;2022-08-05T05:59:14;22.50;67.30
60469;DHT22;46316;47.582;10.238;2022-08-05T06:01:41;22.70;67.40
60469;DHT22;46316;47.582;10.238;2022-08-05T06:04:08;22.80;66.90
60469;DHT22;46316;47.582;10.238;2022-08-05T06:06:35;22.90;66.10
60469;DHT22;46316;47.582;10.238;2022-08-05T06:09:04;23.10;65.30
60469;DHT22;46316;47.582;10.238;2022-08-05T06:11:33;23.20;65.90
60469;DHT22;46316;47.582;10.238;2022-08-05T06:13:59;23.30;65.00
60469;DHT22;46316;47.582;10.238;2022-08-05T06:16:25;23.60;65.20
60469;DHT22;46316;47.582;10.238;2022-08-05T06:18:51;23.90;66.00
60469;DHT22;46316;47.582;10.238;2022-08-05T06:21:17;24.00;64.80
60469;DHT22;46316;47.582;10.238;2022-08-05T06:23:43;24.30;63.20
60469;DHT22;46316;47.582;10.238;2022-08-05T06:26:09;24.50;61.10
60469;DHT22;46316;47.582;10.238;2022-08-05T06:28:35;24.50;61.20
60469;DHT22;46316;47.582;10.238;2022-08-05T06:31:01;24.50;61.70
60469;DHT22;46316;47.582;10.238;2022-08-05T06:33:27;24.40;62.10
60469;DHT22;46316;47.582;10.238;2022-08-05T06:35:52;24.30;62.00
60469;DHT22;46316;47.582;10.238;2022-08-05T06:38:18;24.10;62.50
60469;DHT22;46316;47.582;10.238;2022-08-05T06:40:43;23.90;64.10
60469;DHT22;46316;47.582;10.238;2022-08-05T06:43:09;23.90;62.70
60469;DHT22;46316;47.582;10.238;2022-08-05T06:45:34;23.90;62.10
60469;DHT22;46316;47.582;10.238;2022-08-05T06:48:03;23.90;62.80
60469;DHT22;46316;47.582;10.238;2022-08-05T06:50:29;23.90;62.90
60469;DHT22;46316;47.582;10.238;2022-08-05T06:52:54;23.80;63.60
60469;DHT22;46316;47.582;10.238;2022-08-05T06:55:20;23.80;63.60
60469;DHT22;46316;47.582;10.238;2022-08-05T06:57:49;23.80;62.80
60469;DHT22;46316;47.582;10.238;2022-08-05T07:00:14;23.90;62.80
60469;DHT22;46316;47.582;10.238;2022-08-05T07:02:43;23.90;62.30
60469;DHT22;46316;47.582;10.238;2022-08-05T07:05:10;24.10;62.10
60469;DHT22;46316;47.582;10.238;2022-08-05T07:07:37;24.40;61.90
60469;DHT22;46316;47.582;10.238;2022-08-05T07:10:03;24.90;61.20
60469;DHT22;46316;47.582;10.238;2022-08-05T07:12:29;25.40;59.70
60469;DHT22;46316;47.582;10.238;2022-08-05T07:15:13;25.90;58.40
60469;DHT22;46316;47.582;10.238;2022-08-05T07:18:43;26.20;57.60
60469;DHT22;46316;47.582;10.238;2022-08-05T07:21:02;26.40;56.70
60469;DHT22;46316;47.582;10.238;2022-08-05T07:26:32;26.80;55.70
60469;DHT22;46316;47.582;10.238;2022-08-05T07:29:14;26.90;54.60
60469;DHT22;46316;47.582;10.238;2022-08-05T07:31:42;27.00;56.20
60469;DHT22;46316;47.582;10.238;2022-08-05T07:34:14;27.40;55.00
60469;DHT22;46316;47.582;10.238;2022-08-05T07:36:40;27.80;54.60
60469;DHT22;46316;47.582;10.238;2022-08-05T07:39:07;27.90;52.90
60469;DHT22;46316;47.582;10.238;2022-08-05T07:41:37;28.40;52.90
60469;DHT22;46316;47.582;10.238;2022-08-05T07:44:04;29.30;52.10
60469;DHT22;46316;47.582;10.238;2022-08-05T07:46:34;30.00;50.30
60469;DHT22;46316;47.582;10.238;2022-08-05T07:49:00;30.80;47.80
60469;DHT22;46316;47.582;10.238;2022-08-05T07:51:26;31.80;45.80
60469;DHT22;46316;47.582;10.238;2022-08-05T07:53:52;33.20;41.70
60469;DHT22;46316;47.582;10.238;2022-08-05T07:56:17;33.50;39.80
60469;DHT22;46316;47.582;10.238;2022-08-05T07:58:43;33.60;38.80
60469;DHT22;46316;47.582;10.238;2022-08-05T08:01:08;33.90;37.50
60469;DHT22;46316;47.582;10.238;2022-08-05T08:03:34;34.60;37.70
60469;DHT22;46316;47.582;10.238;2022-08-05T08:06:11;35.40;35.50
60469;DHT22;46316;47.582;10.238;2022-08-05T08:08:49;36.10;34.10
60469;DHT22;46316;47.582;10.238;2022-08-05T08:11:36;36.70;34.10
60469;DHT22;46316;47.582;10.238;2022-08-05T08:14:02;36.40;33.20
60469;DHT22;46316;47.582;10.238;2022-08-05T08:16:27;36.30;34.40
60469;DHT22;46316;47.582;10.238;2022-08-05T08:18:53;36.50;32.40
60469;DHT22;46316;47.582;10.238;2022-08-05T08:21:18;36.90;33.30
60469;DHT22;46316;47.582;10.238;2022-08-05T08:23:44;37.30;32.70
60469;DHT22;46316;47.582;10.238;2022-08-05T08:26:10;37.40;32.60
60469;DHT22;46316;47.582;10.238;2022-08-05T08:28:35;37.10;33.10
60469;DHT22;46316;47.582;10.238;2022-08-05T08:31:01;37.00;32.70
60469;DHT22;46316;47.582;10.238;2022-08-05T08:33:26;37.30;30.40
60469;DHT22;46316;47.582;10.238;2022-08-05T08:35:52;37.80;32.10
60469;DHT22;46316;47.582;10.238;2022-08-05T08:38:17;37.60;31.90
60469;DHT22;46316;47.582;10.238;2022-08-05T08:40:43;37.30;31.90
60469;DHT22;46316;47.582;10.238;2022-08-05T08:43:11;37.40;30.80
60469;DHT22;46316;47.582;10.238;2022-08-05T08:45:39;37.10;32.30
60469;DHT22;46316;47.582;10.238;2022-08-05T08:48:10;36.30;32.30
60469;DHT22;46316;47.582;10.238;2022-08-05T08:50:39;35.60;32.70
60469;DHT22;46316;47.582;10.238;2022-08-05T08:53:06;35.00;35.30
60469;DHT22;46316;47.582;10.238;2022-08-05T08:55:33;34.70;35.70
60469;DHT22;46316;47.582;10.238;2022-08-05T08:58:00;34.80;35.60
60469;DHT22;46316;47.582;10.238;2022-08-05T09:00:38;34.50;35.00
60469;DHT22;46316;47.582;10.238;2022-08-05T09:03:05;33.60;36.60
60469;DHT22;46316;47.582;10.238;2022-08-05T09:05:39;33.00;37.70
60469;DHT22;46316;47.582;10.238;2022-08-05T09:08:54;32.30;38.90
60469;DHT22;46316;47.582;10.238;2022-08-05T09:15:19;30.60;42.00
60469;DHT22;46316;47.582;10.238;2022-08-05T09:17:56;30.30;42.50
60469;DHT22;46316;47.582;10.238;2022-08-05T09:20:28;30.50;42.90
60469;DHT22;46316;47.582;10.238;2022-08-05T09:26:29;30.20;43.70
60469;DHT22;46316;47.582;10.238;2022-08-05T09:29:03;30.00;43.20
60469;DHT22;46316;47.582;10.238;2022-08-05T09:31:37;29.60;44.30
60469;DHT22;46316;47.582;10.238;2022-08-05T09:34:20;29.40;44.70
60469;DHT22;46316;47.582;10.238;2022-08-05T09:36:48;28.80;45.20
60469;DHT22;46316;47.582;10.238;2022-08-05T09:39:16;28.10;47.50
60469;DHT22;46316;47.582;10.238;2022-08-05T09:42:01;27.90;47.60
60469;DHT22;46316;47.582;10.238;2022-08-05T09:44:35;27.70;49.50
60469;DHT22;46316;47.582;10.238;2022-08-05T09:47:33;27.60;49.50
60469;DHT22;46316;47.582;10.238;2022-08-05T09:50:00;27.40;49.80
60469;DHT22;46316;47.582;10.238;2022-08-05T09:54:57;27.30;49.50
60469;DHT22;46316;47.582;10.238;2022-08-05T09:57:44;27.30;50.20
60469;DHT22;46316;47.582;10.238;2022-08-05T10:00:17;27.30;51.10
60469;DHT22;46316;47.582;10.238;2022-08-05T10:02:46;27.40;48.60
60469;DHT22;46316;47.582;10.238;2022-08-05T10:05:15;27.50;49.40
60469;DHT22;46316;47.582;10.238;2022-08-05T10:07:48;27.70;50.00
60469;DHT22;46316;47.582;10.238;2022-08-05T10:10:15;27.80;49.80
60469;DHT22;46316;47.582;10.238;2022-08-05T10:12:43;27.60;48.60
60469;DHT22;46316;47.582;10.238;2022-08-05T10:15:26;27.10;50.00
60469;DHT22;46316;47.582;10.238;2022-08-05T10:20:30;27.10;50.20
60469;DHT22;46316;47.582;10.238;2022-08-05T10:22:57;27.10;50.90
60469;DHT22;46316;47.582;10.238;2022-08-05T10:25:22;26.90;51.90
60469;DHT22;46316;47.582;10.238;2022-08-05T10:27:48;27.00;51.10
60469;DHT22;46316;47.582;10.238;2022-08-05T10:30:14;26.90;51.60
60469;DHT22;46316;47.582;10.238;2022-08-05T10:32:41;26.90;51.90
60469;DHT22;46316;47.582;10.238;2022-08-05T10:35:07;26.90;51.80
60469;DHT22;46316;47.582;10.238;2022-08-05T10:37:33;27.10;51.00
60469;DHT22;46316;47.582;10.238;2022-08-05T10:43:57;27.50;51.00
60469;DHT22;46316;47.582;10.238;2022-08-05T10:46:00;27.80;50.60
60469;DHT22;46316;47.582;10.238;2022-08-05T10:48:34;28.20;49.10
60469;DHT22;46316;47.582;10.238;2022-08-05T10:51:06;29.00;49.50
60469;DHT22;46316;47.582;10.238;2022-08-05T10:53:38;29.90;45.90
60469;DHT22;46316;47.582;10.238;2022-08-05T10:56:07;30.30;45.80
60469;DHT22;46316;47.582;10.238;2022-08-05T10:58:33;30.80;45.00
60469;DHT22;46316;47.582;10.238;2022-08-05T11:01:03;31.30;44.20
60469;DHT22;46316;47.582;10.238;2022-08-05T11:03:57;31.10;43.10
60469;DHT22;46316;47.582;10.238;2022-08-05T11:06:14;31.10;44.60
60469;DHT22;46316;47.582;10.238;2022-08-05T11:09:11;31.40;43.00
60469;DHT22;46316;47.582;10.238;2022-08-05T11:11:37;31.30;43.70
60469;DHT22;46316;47.582;10.238;2022-08-05T11:14:03;31.10;44.40
60469;DHT22;46316;47.582;10.238;2022-08-05T11:16:29;31.20;42.30
60469;DHT22;46316;47.582;10.238;2022-08-05T11:19:24;31.20;43.30
60469;DHT22;46316;47.582;10.238;2022-08-05T11:21:51;30.60;44.70
60469;DHT22;46316;47.582;10.238;2022-08-05T11:24:25;30.70;44.80
60469;DHT22;46316;47.582;10.238;2022-08-05T11:30:22;30.90;44.80
60469;DHT22;46316;47.582;10.238;2022-08-05T11:32:48;30.80;44.00
60469;DHT22;46316;47.582;10.238;2022-08-05T11:35:50;30.60;43.80
60469;DHT22;46316;47.582;10.238;2022-08-05T11:38:16;30.40;44.20
60469;DHT22;46316;47.582;10.238;2022-08-05T11:41:04;30.40;44.10
60469;DHT22;46316;47.582;10.238;2022-08-05T11:43:30;30.40;45.70
60469;DHT22;46316;47.582;10.238;2022-08-05T11:45:57;29.90;46.50
60469;DHT22;46316;47.582;10.238;2022-08-05T11:48:24;29.40;46.70
60469;DHT22;46316;47.582;10.238;2022-08-05T11:50:50;29.30;47.90
60469;DHT22;46316;47.582;10.238;2022-08-05T11:53:17;29.30;47.20
60469;DHT22;46316;47.582;10.238;2022-08-05T11:55:57;29.60;47.60
60469;DHT22;46316;47.582;10.238;2022-08-05T12:01:16;29.90;45.40
60469;DHT22;46316;47.582;10.238;2022-08-05T12:03:48;30.10;45.70
60469;DHT22;46316;47.582;10.238;2022-08-05T12:06:16;30.00;47.80
60469;DHT22;46316;47.582;10.238;2022-08-05T12:08:45;30.00;48.20
60469;DHT22;46316;47.582;10.238;2022-08-05T12:17:14;30.00;45.90
60469;DHT22;46316;47.582;10.238;2022-08-05T12:19:42;29.90;48.10
60469;DHT22;46316;47.582;10.238;2022-08-05T12:22:08;29.80;49.10
60469;DHT22;46316;47.582;10.238;2022-08-05T12:24:59;29.80;47.70
60469;DHT22;46316;47.582;10.238;2022-08-05T12:27:28;29.70;48.00
60469;DHT22;46316;47.582;10.238;2022-08-05T12:30:09;29.40;48.00
60469;DHT22;46316;47.582;10.238;2022-08-05T12:32:52;29.30;48.90
60469;DHT22;46316;47.582;10.238;2022-08-05T12:35:20;29.20;48.10
60469;DHT22;46316;47.582;10.238;2022-08-05T12:37:49;29.20;47.50
60469;DHT22;46316;47.582;10.238;2022-08-05T12:40:18;29.30;47.70
60469;DHT22;46316;47.582;10.238;2022-08-05T12:42:54;29.40;46.80
60469;DHT22;46316;47.582;10.238;2022-08-05T12:45:20;29.40;47.50
60469;DHT22;46316;47.582;10.238;2022-08-05T12:47:46;29.30;48.00
60469;DHT22;46316;47.582;10.238;2022-08-05T12:50:14;29.30;48.00
60469;DHT22;46316;47.582;10.238;2022-08-05T12:52:40;29.30;47.00
60469;DHT22;46316;47.582;10.238;2022-08-05T12:55:36;29.00;47.10
60469;DHT22;46316;47.582;10.238;2022-08-05T12:58:02;28.90;49.10
60469;DHT22;46316;47.582;10.238;2022-08-05T13:00:27;28.90;49.00
60469;DHT22;46316;47.582;10.238;2022-08-05T13:02:57;28.90;49.50
60469;DHT22;46316;47.582;10.238;2022-08-05T13:05:26;28.80;48.10
60469;DHT22;46316;47.582;10.238;2022-08-05T13:07:56;28.80;49.70
60469;DHT22;46316;47.582;10.238;2022-08-05T13:10:22;28.90;49.80
60469;DHT22;46316;47.582;10.238;2022-08-05T13:12:56;28.80;51.60
60469;DHT22;46316;47.582;10.238;2022-08-05T13:15:30;28.80;49.90
60469;DHT22;46316;47.582;10.238;2022-08-05T13:18:11;28.70;49.80
60469;DHT22;46316;47.582;10.238;2022-08-05T13:20:40;28.70;50.30
60469;DHT22;46316;47.582;10.238;2022-08-05T13:23:22;28.70;50.30
60469;DHT22;46316;47.582;10.238;2022-08-05T13:26:19;28.80;52.00
60469;DHT22;46316;47.582;10.238;2022-08-05T13:28:54;28.80;51.90
60469;DHT22;46316;47.582;10.238;2022-08-05T13:31:23;28.80;49.40
60469;DHT22;46316;47.582;10.238;2022-08-05T13:34:09;28.80;52.00
60469;DHT22;46316;47.582;10.238;2022-08-05T13:36:38;28.80;51.00
60469;DHT22;46316;47.582;10.238;2022-08-05T13:39:18;28.90;51.10
60469;DHT22;46316;47.582;10.238;2022-08-05T13:41:53;28.80;50.30
60469;DHT22;46316;47.582;10.238;2022-08-05T13:45:01;28.90;50.50
60469;DHT22;46316;47.582;10.238;2022-08-05T13:47:36;29.00;50.90
60469;DHT22;46316;47.582;10.238;2022-08-05T13:50:25;29.00;50.90
60469;DHT22;46316;47.582;10.238;2022-08-05T13:53:27;29.00;50.60
60469;DHT22;46316;47.582;10.238;2022-08-05T13:56:01;29.00;51.20
60469;DHT22;46316;47.582;10.238;2022-08-05T13:58:44;29.00;51.10
60469;DHT22;46316;47.582;10.238;2022-08-05T14:01:37;29.00;49.50
60469;DHT22;46316;47.582;10.238;2022-08-05T14:04:08;29.00;49.70
60469;DHT22;46316;47.582;10.238;2022-08-05T14:07:14;29.00;50.90
60469;DHT22;46316;47.582;10.238;2022-08-05T14:09:43;29.00;51.10
60469;DHT22;46316;47.582;10.238;2022-08-05T14:12:24;28.90;51.30
60469;DHT22;46316;47.582;10.238;2022-08-05T14:14:53;28.90;51.50
60469;DHT22;46316;47.582;10.238;2022-08-05T14:17:19;28.90;51.20
60469;DHT22;46316;47.582;10.238;2022-08-05T14:19:47;28.90;51.00
60469;DHT22;46316;47.582;10.238;2022-08-05T14:22:13;28.90;50.90
60469;DHT22;46316;47.582;10.238;2022-08-05T14:24:38;28.90;51.00
60469;DHT22;46316;47.582;10.238;2022-08-05T14:27:05;28.90;50.10
60469;DHT22;46316;47.582;10.238;2022-08-05T14:29:30;28.90;50.20
60469;DHT22;46316;47.582;10.238;2022-08-05T14:31:56;28.90;50.90
60469;DHT22;46316;47.582;10.238;2022-08-05T14:34:21;28.90;51.10
60469;DHT22;46316;47.582;10.238;2022-08-05T14:36:47;28.90;52.90
60469;DHT22;46316;47.582;10.238;2022-08-05T14:39:12;28.90;52.70
60469;DHT22;46316;47.582;10.238;2022-08-05T14:41:38;28.90;52.00
60469;DHT22;46316;47.582;10.238;2022-08-05T14:44:04;28.80;51.30
60469;DHT22;46316;47.582;10.238;2022-08-05T14:46:30;28.90;50.90
60469;DHT22;46316;47.582;10.238;2022-08-05T14:48:59;28.80;50.20
60469;DHT22;46316;47.582;10.238;2022-08-05T14:51:26;28.80;50.80
60469;DHT22;46316;47.582;10.238;2022-08-05T14:53:52;28.80;49.90
60469;DHT22;46316;47.582;10.238;2022-08-05T14:56:17;28.80;51.30
60469;DHT22;46316;47.582;10.238;2022-08-05T14:58:43;28.70;50.10
60469;DHT22;46316;47.582;10.238;2022-08-05T15:01:08;28.60;51.60
60469;DHT22;46316;47.582;10.238;2022-08-05T15:03:35;28.60;51.40
60469;DHT22;46316;47.582;10.238;2022-08-05T15:06:01;28.50;51.20
60469;DHT22;46316;47.582;10.238;2022-08-05T15:08:27;28.50;51.60
60469;DHT22;46316;47.582;10.238;2022-08-05T15:10:52;28.40;50.00
60469;DHT22;46316;47.582;10.238;2022-08-05T15:13:18;28.40;50.90
60469;DHT22;46316;47.582;10.238;2022-08-05T15:15:44;28.40;51.70
60469;DHT22;46316;47.582;10.238;2022-08-05T15:18:09;28.40;50.90
60469;DHT22;46316;47.582;10.238;2022-08-05T15:20:35;28.40;50.90
60469;DHT22;46316;47.582;10.238;2022-08-05T15:23:05;28.50;50.60
60469;DHT22;46316;47.582;10.238;2022-08-05T15:25:31;28.50;51.20
60469;DHT22;46316;47.582;10.238;2022-08-05T15:27:57;28.60;52.40
60469;DHT22;46316;47.582;10.238;2022-08-05T15:30:23;28.70;51.90
60469;DHT22;46316;47.582;10.238;2022-08-05T15:32:48;28.80;51.70
60469;DHT22;46316;47.582;10.238;2022-08-05T15:35:14;28.90;50.30
60469;DHT22;46316;47.582;10.238;2022-08-05T15:37:39;28.90;49.90
60469;DHT22;46316;47.582;10.238;2022-08-05T15:40:06;28.90;50.00
60469;DHT22;46316;47.582;10.238;2022-08-05T15:42:31;28.90;51.60
60469;DHT22;46316;47.582;10.238;2022-08-05T15:44:58;28.90;51.60
60469;DHT22;46316;47.582;10.238;2022-08-05T15:47:25;28.90;51.70
60469;DHT22;46316;47.582;10.238;2022-08-05T15:49:51;28.90;51.30
60469;DHT22;46316;47.582;10.238;2022-08-05T15:52:20;28.90;51.20
60469;DHT22;46316;47.582;10.238;2022-08-05T15:54:46;28.90;51.80
60469;DHT22;46316;47.582;10.238;2022-08-05T15:57:11;28.80;52.70
60469;DHT22;46316;47.582;10.238;2022-08-05T15:59:37;28.70;53.10
60469;DHT22;46316;47.582;10.238;2022-08-05T16:02:03;28.60;53.60
60469;DHT22;46316;47.582;10.238;2022-08-05T16:04:28;28.50;53.90
60469;DHT22;46316;47.582;10.238;2022-08-05T16:06:54;28.40;53.40
60469;DHT22;46316;47.582;10.238;2022-08-05T16:09:19;28.40;53.70
60469;DHT22;46316;47.582;10.238;2022-08-05T16:11:45;28.40;53.80
60469;DHT22;46316;47.582;10.238;2022-08-05T16:14:11;28.20;54.60
60469;DHT22;46316;47.582;10.238;2022-08-05T16:16:38;28.10;54.80